createdAt,value
2023-04-21T00:00:10.391Z,13.15
2023-04-21T00:02:40.357Z,9.15
2023-04-21T00:05:09.488Z,9.88
2023-04-21T00:07:37.895Z,8.88
2023-04-21T00:10:08.162Z,9.98
2023-04-21T00:12:34.716Z,9.27
2023-04-21T00:15:01.394Z,12.93
2023-04-21T00:17:28.159Z,12.90
2023-04-21T00:19:54.751Z,13.48
2023-04-21T00:22:21.811Z,12.65
2023-04-21T00:24:48.228Z,12.85
2023-04-21T00:27:15.821Z,11.75
2023-04-21T00:29:42.309Z,13.10
2023-04-21T00:32:10.183Z,11.55
2023-04-21T00:34:37.068Z,11.98
2023-04-21T00:37:03.531Z,8.00
2023-04-21T00:39:29.965Z,9.47
2023-04-21T00:41:57.463Z,10.43
2023-04-21T00:44:24.051Z,9.40
2023-04-21T00:46:50.516Z,8.53
2023-04-21T00:49:17.388Z,8.43
2023-04-21T00:51:43.999Z,10.35
2023-04-21T00:54:10.717Z,11.83
2023-04-21T00:56:37.319Z,8.52
2023-04-21T00:59:04.109Z,9.85
2023-04-21T01:01:32.779Z,9.93
2023-04-21T01:04:00.029Z,8.40
2023-04-21T01:06:30.242Z,10.57
2023-04-21T01:08:56.802Z,8.43
2023-04-21T01:11:23.343Z,11.93
2023-04-21T01:13:52.229Z,10.20
2023-04-21T01:16:18.748Z,8.37
2023-04-21T01:18:45.460Z,7.60
2023-04-21T01:21:12.132Z,8.20
2023-04-21T01:23:39.743Z,11.87
2023-04-21T01:26:06.443Z,14.57
2023-04-21T01:28:32.933Z,10.37
2023-04-21T01:30:59.353Z,13.48
2023-04-21T01:33:26.000Z,12.93
2023-04-21T01:35:52.416Z,14.77
2023-04-21T01:38:19.727Z,13.23
2023-04-21T01:40:47.545Z,10.97
2023-04-21T01:43:14.207Z,9.13
2023-04-21T01:45:40.761Z,9.07
2023-04-21T01:48:07.370Z,9.07
2023-04-21T01:50:33.812Z,11.63
2023-04-21T01:53:00.226Z,8.63
2023-04-21T01:55:26.635Z,11.80
2023-04-21T01:57:53.069Z,13.27
2023-04-21T02:00:19.818Z,10.90
2023-04-21T02:02:46.441Z,12.50
2023-04-21T02:05:12.984Z,9.23
2023-04-21T02:07:39.378Z,11.37
2023-04-21T02:10:06.226Z,13.13
2023-04-21T02:12:32.724Z,12.47
2023-04-21T02:14:59.117Z,8.07
2023-04-21T02:17:26.322Z,10.47
2023-04-21T02:19:52.970Z,12.10
2023-04-21T02:22:19.412Z,9.90
2023-04-21T02:24:46.003Z,10.63
2023-04-21T02:27:12.411Z,8.30
2023-04-21T02:29:38.824Z,12.70
2023-04-21T02:32:18.263Z,9.13
2023-04-21T02:34:51.855Z,8.13
2023-04-21T02:37:18.322Z,8.60
2023-04-21T02:39:44.934Z,8.73
2023-04-21T02:42:11.544Z,11.77
2023-04-21T02:44:38.500Z,12.97
2023-04-21T02:47:05.035Z,10.17
2023-04-21T02:49:31.730Z,10.63
2023-04-21T02:51:58.345Z,13.73
2023-04-21T02:54:24.833Z,10.70
2023-04-21T02:56:51.429Z,14.00
2023-04-21T02:59:18.156Z,8.27
2023-04-21T03:01:45.030Z,8.87
2023-04-21T03:04:11.586Z,14.73
2023-04-21T03:06:38.125Z,8.87
2023-04-21T03:09:04.595Z,9.53
2023-04-21T03:11:31.090Z,9.43
2023-04-21T03:13:57.536Z,10.43
2023-04-21T03:16:24.357Z,8.57
2023-04-21T03:18:50.760Z,8.30
2023-04-21T03:21:17.494Z,7.63
2023-04-21T03:23:43.953Z,8.30
2023-04-21T03:26:10.428Z,8.37
2023-04-21T03:28:36.863Z,7.80
2023-04-21T03:31:03.263Z,8.93
2023-04-21T03:33:29.662Z,8.10
2023-04-21T03:35:56.352Z,14.53
2023-04-21T03:38:22.763Z,9.50
2023-04-21T03:40:49.328Z,9.50
2023-04-21T03:43:15.831Z,13.63
2023-04-21T03:45:42.302Z,11.47
2023-04-21T03:48:08.816Z,9.13
2023-04-21T03:50:35.234Z,11.13
2023-04-21T03:53:02.060Z,9.53
2023-04-21T03:55:28.472Z,10.93
2023-04-21T03:57:54.896Z,11.57
2023-04-21T04:00:21.369Z,11.90
2023-04-21T04:02:47.950Z,7.63
2023-04-21T04:05:14.680Z,7.17
2023-04-21T04:07:41.224Z,7.37
2023-04-21T04:10:07.752Z,8.90
2023-04-21T04:12:34.192Z,16.33
2023-04-21T04:15:01.308Z,11.10
2023-04-21T04:17:27.974Z,8.83
2023-04-21T04:19:54.448Z,6.53
2023-04-21T04:22:21.018Z,7.20
2023-04-21T04:24:48.045Z,13.57
2023-04-21T04:27:14.578Z,11.27
2023-04-21T04:29:41.272Z,14.53
2023-04-21T04:32:11.327Z,11.97
2023-04-21T04:34:37.954Z,15.40
2023-04-21T04:37:04.499Z,12.97
2023-04-21T04:39:31.966Z,10.03
2023-04-21T04:41:58.609Z,11.07
2023-04-21T04:44:25.902Z,13.93
2023-04-21T04:46:52.888Z,7.33
2023-04-21T04:49:19.556Z,13.43
2023-04-21T04:51:46.142Z,8.37
2023-04-21T04:54:12.607Z,11.30
2023-04-21T04:56:39.437Z,10.23
2023-04-21T04:59:05.959Z,9.60
2023-04-21T05:01:32.490Z,7.90
2023-04-21T05:03:59.136Z,12.03
2023-04-21T05:06:26.197Z,6.67
2023-04-21T05:08:52.589Z,6.83
2023-04-21T05:11:19.045Z,9.57
2023-04-21T05:13:45.460Z,10.63
2023-04-21T05:16:12.015Z,10.63
2023-04-21T05:18:38.615Z,6.88
2023-04-21T05:21:05.201Z,11.43
2023-04-21T05:23:31.637Z,9.00
2023-04-21T05:25:58.104Z,11.10
2023-04-21T05:28:24.552Z,11.07
2023-04-21T05:30:50.955Z,11.27
2023-04-21T05:33:20.682Z,17.13
2023-04-21T05:35:47.372Z,18.13
2023-04-21T05:38:13.896Z,12.32
2023-04-21T05:40:40.473Z,9.75
2023-04-21T05:43:06.942Z,13.45
2023-04-21T05:45:33.395Z,10.77
2023-04-21T05:48:00.052Z,11.32
2023-04-21T05:50:28.616Z,11.10
2023-04-21T05:52:55.054Z,10.48
2023-04-21T05:55:21.522Z,11.07
2023-04-21T05:57:47.936Z,13.30
2023-04-21T06:00:14.567Z,13.85
2023-04-21T06:02:41.147Z,12.70
2023-04-21T06:05:08.087Z,11.82
2023-04-21T06:07:37.247Z,9.48
2023-04-21T06:10:04.315Z,13.95
2023-04-21T06:12:31.245Z,14.48
2023-04-21T06:14:58.190Z,11.60
2023-04-21T06:17:24.711Z,11.05
2023-04-21T06:19:54.113Z,13.13
2023-04-21T06:22:21.094Z,11.10
2023-04-21T06:24:47.682Z,12.05
2023-04-21T06:27:14.248Z,11.10
2023-04-21T06:29:40.787Z,10.90
2023-04-21T06:32:07.466Z,8.68
2023-04-21T06:34:34.164Z,10.57
2023-04-21T06:37:01.051Z,11.25
2023-04-21T06:39:28.332Z,9.80
2023-04-21T06:41:55.133Z,9.55
2023-04-21T06:44:21.831Z,7.32
2023-04-21T06:46:48.459Z,8.60
2023-04-21T06:49:14.942Z,9.32
2023-04-21T06:51:41.502Z,5.53
2023-04-21T06:54:08.139Z,8.48
2023-04-21T06:56:58.785Z,7.20
2023-04-21T06:59:25.629Z,9.35
2023-04-21T07:01:55.102Z,9.90
2023-04-21T07:04:21.902Z,10.20
2023-04-21T07:06:49.302Z,11.57
2023-04-21T07:09:15.879Z,11.00
2023-04-21T07:11:42.497Z,11.00
2023-04-21T07:14:09.081Z,10.75
2023-04-21T07:16:35.594Z,12.57
2023-04-21T07:19:02.047Z,13.52
2023-04-21T07:21:30.286Z,11.35
2023-04-21T07:23:56.722Z,15.18
2023-04-21T07:26:23.175Z,14.60
2023-04-21T07:28:50.886Z,12.43
2023-04-21T07:31:17.378Z,11.48
2023-04-21T07:33:43.855Z,13.10
2023-04-21T07:36:10.748Z,11.15
2023-04-21T07:38:38.415Z,10.30
2023-04-21T07:41:05.356Z,12.38
2023-04-21T07:43:31.959Z,10.02
2023-04-21T07:45:58.599Z,8.52
2023-04-21T07:48:25.072Z,8.52
2023-04-21T07:50:51.556Z,10.50
2023-04-21T07:53:18.075Z,10.35
2023-04-21T07:55:44.558Z,10.40
2023-04-21T07:58:11.304Z,7.57
2023-04-21T08:00:37.771Z,9.65
2023-04-21T08:03:04.309Z,6.88
2023-04-21T08:05:34.910Z,9.55
2023-04-21T08:08:03.237Z,9.77
2023-04-21T08:10:29.968Z,9.82
2023-04-21T08:12:56.425Z,14.90
2023-04-21T08:15:22.890Z,12.45
2023-04-21T08:17:49.420Z,9.73
2023-04-21T08:20:16.071Z,10.48
2023-04-21T08:22:42.731Z,11.27
2023-04-21T08:25:09.367Z,10.52
2023-04-21T08:27:37.833Z,10.65
2023-04-21T08:30:04.654Z,8.95
2023-04-21T08:32:31.178Z,9.20
2023-04-21T08:34:57.639Z,7.85
2023-04-21T08:37:24.238Z,11.82
2023-04-21T08:39:54.566Z,8.98
2023-04-21T08:42:21.070Z,11.00
2023-04-21T08:44:47.663Z,12.30
2023-04-21T08:47:14.857Z,11.05
2023-04-21T08:49:41.750Z,7.90
2023-04-21T08:52:08.186Z,11.00
2023-04-21T08:54:36.515Z,10.50
2023-04-21T08:57:15.407Z,10.60
2023-04-21T08:59:42.965Z,10.23
2023-04-21T09:02:16.445Z,8.85
2023-04-21T09:04:44.292Z,8.25
2023-04-21T09:07:11.070Z,7.80
2023-04-21T09:09:53.568Z,9.52
2023-04-21T09:12:20.086Z,10.02
2023-04-21T09:14:46.807Z,6.82
2023-04-21T09:17:14.958Z,7.15
2023-04-21T09:19:41.824Z,7.72
2023-04-21T09:22:08.313Z,8.15
2023-04-21T09:24:34.874Z,7.60
2023-04-21T09:27:02.790Z,11.32
2023-04-21T09:29:29.524Z,9.68
2023-04-21T09:31:55.963Z,8.65
2023-04-21T09:34:24.713Z,13.18
2023-04-21T09:37:01.546Z,10.90
2023-04-21T09:39:43.240Z,16.75
2023-04-21T09:42:17.747Z,16.67
2023-04-21T09:44:52.418Z,13.82
2023-04-21T09:47:23.042Z,17.05
2023-04-21T09:49:52.593Z,26.77
2023-04-21T09:52:22.153Z,15.63
2023-04-21T09:54:53.613Z,10.77
2023-04-21T09:57:25.112Z,15.57
2023-04-21T09:59:55.129Z,13.57
2023-04-21T10:02:21.910Z,17.90
2023-04-21T10:04:48.835Z,14.40
2023-04-21T10:07:15.655Z,18.75
2023-04-21T10:09:43.604Z,19.90
2023-04-21T10:12:10.136Z,16.88
2023-04-21T10:14:36.825Z,17.58
2023-04-21T10:17:10.151Z,17.48
2023-04-21T10:19:40.160Z,13.13
2023-04-21T10:22:07.649Z,15.27
2023-04-21T10:24:36.970Z,21.25
2023-04-21T10:27:04.110Z,19.83
2023-04-21T10:29:37.237Z,16.33
2023-04-21T10:32:10.628Z,13.90
2023-04-21T10:34:37.313Z,18.25
2023-04-21T10:37:03.797Z,15.18
2023-04-21T10:39:31.513Z,16.38
2023-04-21T10:41:58.445Z,12.93
2023-04-21T10:44:24.941Z,15.07
2023-04-21T10:46:52.234Z,14.77
2023-04-21T10:49:25.685Z,10.27
2023-04-21T10:51:58.438Z,11.75
2023-04-21T10:54:28.490Z,12.57
2023-04-21T10:56:55.286Z,11.15
2023-04-21T10:59:21.960Z,9.90
2023-04-21T11:01:48.414Z,11.77
2023-04-21T11:04:22.064Z,11.13
2023-04-21T11:07:08.169Z,10.95
2023-04-21T11:09:44.302Z,9.90
2023-04-21T11:12:11.602Z,8.40
2023-04-21T11:14:38.863Z,8.48
2023-04-21T11:17:05.891Z,12.57
2023-04-21T11:19:32.355Z,10.20
2023-04-21T11:21:58.780Z,10.32
2023-04-21T11:24:25.282Z,11.35
2023-04-21T11:26:51.894Z,11.57
2023-04-21T11:29:18.347Z,13.20
2023-04-21T11:31:46.835Z,8.55
2023-04-21T11:34:13.701Z,12.02
2023-04-21T11:36:40.945Z,7.90
2023-04-21T11:39:10.493Z,14.63
2023-04-21T11:41:39.272Z,12.57
2023-04-21T11:44:05.977Z,8.90
2023-04-21T11:46:40.337Z,11.40
2023-04-21T11:49:07.563Z,9.25
2023-04-21T11:51:34.534Z,8.95
2023-04-21T11:54:01.079Z,12.25
2023-04-21T11:56:27.546Z,7.45
2023-04-21T11:58:54.082Z,12.05
2023-04-21T12:01:21.079Z,10.00
2023-04-21T12:03:51.390Z,9.25
2023-04-21T12:06:24.671Z,9.43
2023-04-21T12:09:00.365Z,11.98
2023-04-21T12:11:30.511Z,9.60
2023-04-21T12:13:57.840Z,9.10
2023-04-21T12:16:27.177Z,11.43
2023-04-21T12:18:54.004Z,10.23
2023-04-21T12:21:20.642Z,9.20
2023-04-21T12:23:47.059Z,10.55
2023-04-21T12:26:13.597Z,8.70
2023-04-21T12:28:40.060Z,9.23
2023-04-21T12:31:06.546Z,12.82
2023-04-21T12:33:33.048Z,12.73
2023-04-21T12:36:00.949Z,12.50
2023-04-21T12:38:27.365Z,10.88
2023-04-21T12:40:53.808Z,11.55
2023-04-21T12:43:20.344Z,9.88
2023-04-21T12:45:46.850Z,11.05
2023-04-21T12:48:13.801Z,9.13
2023-04-21T12:50:40.262Z,10.95
2023-04-21T12:53:07.125Z,10.02
2023-04-21T12:55:34.773Z,8.52
2023-04-21T12:58:01.398Z,9.00
2023-04-21T13:00:28.679Z,9.35
2023-04-21T13:02:55.374Z,10.52
2023-04-21T13:05:22.011Z,9.02
2023-04-21T13:07:48.442Z,10.38
2023-04-21T13:10:15.216Z,8.77
2023-04-21T13:12:42.063Z,10.65
2023-04-21T13:15:08.768Z,10.52
2023-04-21T13:17:35.308Z,7.57
2023-04-21T13:20:01.882Z,10.20
2023-04-21T13:22:28.433Z,8.13
2023-04-21T13:24:54.939Z,8.60
2023-04-21T13:27:21.538Z,8.68
2023-04-21T13:29:49.590Z,9.07
2023-04-21T13:32:16.420Z,12.77
2023-04-21T13:34:42.833Z,7.50
2023-04-21T13:37:12.491Z,9.90
2023-04-21T13:39:40.011Z,10.70
2023-04-21T13:42:06.540Z,7.55
2023-04-21T13:44:33.442Z,9.50
2023-04-21T13:47:00.221Z,11.98
2023-04-21T13:49:26.808Z,11.23
2023-04-21T13:51:53.283Z,12.02
2023-04-21T13:54:20.274Z,10.43
2023-04-21T13:56:46.942Z,11.65
2023-04-21T13:59:14.965Z,12.45
2023-04-21T14:01:41.761Z,9.90
2023-04-21T14:04:08.530Z,10.52
2023-04-21T14:06:35.242Z,10.93
2023-04-21T14:09:01.690Z,9.35
2023-04-21T14:11:28.172Z,9.27
2023-04-21T14:14:08.311Z,6.90
2023-04-21T14:16:36.050Z,9.00
2023-04-21T14:19:02.532Z,8.35
2023-04-21T14:21:29.218Z,7.32
2023-04-21T14:23:55.656Z,10.77
2023-04-21T14:26:22.273Z,8.57
2023-04-21T14:28:49.384Z,9.90
2023-04-21T14:31:16.323Z,11.27
2023-04-21T14:33:42.810Z,6.50
2023-04-21T14:36:10.372Z,7.50
2023-04-21T14:38:36.872Z,7.80
2023-04-21T14:41:03.560Z,10.57
2023-04-21T14:43:30.085Z,9.65
2023-04-21T14:45:56.661Z,8.98
2023-04-21T14:48:23.222Z,6.45
2023-04-21T14:50:49.767Z,6.75
2023-04-21T14:53:16.264Z,8.65
2023-04-21T14:55:42.783Z,8.82
2023-04-21T14:58:09.180Z,7.47
2023-04-21T15:00:36.624Z,7.72
2023-04-21T15:03:03.219Z,14.80
2023-04-21T15:05:29.944Z,7.68
2023-04-21T15:07:56.602Z,8.85
2023-04-21T15:10:23.058Z,8.20
2023-04-21T15:12:49.474Z,10.15
2023-04-21T15:15:16.108Z,9.40
2023-04-21T15:17:42.709Z,13.88
2023-04-21T15:20:10.380Z,10.80
2023-04-21T15:22:36.894Z,9.93
2023-04-21T15:25:03.471Z,9.13
2023-04-21T15:27:30.306Z,9.88
2023-04-21T15:29:56.774Z,11.05
2023-04-21T15:32:23.496Z,9.40
2023-04-21T15:34:49.972Z,12.52
2023-04-21T15:37:17.889Z,9.32
2023-04-21T15:39:44.355Z,8.85
2023-04-21T15:42:13.992Z,9.73
2023-04-21T15:44:40.527Z,10.57
2023-04-21T15:47:07.029Z,10.50
2023-04-21T15:49:34.145Z,11.60
2023-04-21T15:52:00.858Z,7.60
2023-04-21T15:54:27.402Z,8.77
2023-04-21T15:56:54.012Z,9.50
2023-04-21T15:59:22.400Z,8.77
2023-04-21T16:01:50.314Z,9.43
2023-04-21T16:04:17.200Z,10.60
2023-04-21T16:06:43.911Z,7.95
2023-04-21T16:09:10.999Z,11.77
2023-04-21T16:11:37.556Z,10.35
2023-04-21T16:14:03.992Z,9.80
2023-04-21T16:16:30.632Z,11.27
2023-04-21T16:18:57.079Z,13.30
2023-04-21T16:21:23.595Z,8.30
2023-04-21T16:23:50.064Z,10.10
2023-04-21T16:26:16.474Z,12.85
2023-04-21T16:28:42.999Z,11.07
2023-04-21T16:31:09.451Z,14.38
2023-04-21T16:33:36.059Z,12.40
2023-04-21T16:36:02.574Z,9.98
2023-04-21T16:38:29.178Z,11.07
2023-04-21T16:40:55.841Z,9.18
2023-04-21T16:43:22.437Z,9.90
2023-04-21T16:45:48.957Z,9.38
2023-04-21T16:48:15.690Z,10.63
2023-04-21T16:50:42.221Z,10.38
2023-04-21T16:53:08.930Z,9.23
2023-04-21T16:55:35.498Z,11.77
2023-04-21T16:58:01.933Z,10.30
2023-04-21T17:00:30.259Z,12.55
2023-04-21T17:02:57.374Z,10.38
2023-04-21T17:05:24.326Z,12.90
2023-04-21T17:07:51.114Z,14.43
2023-04-21T17:10:18.141Z,10.05
2023-04-21T17:12:44.628Z,11.60
2023-04-21T17:15:12.063Z,14.90
2023-04-21T17:17:47.119Z,10.25
2023-04-21T17:20:13.868Z,12.57
2023-04-21T17:22:40.763Z,8.82
2023-04-21T17:25:07.433Z,11.90
2023-04-21T17:27:34.648Z,12.50
2023-04-21T17:30:01.751Z,14.25
2023-04-21T17:32:29.561Z,15.32
2023-04-21T17:34:57.081Z,16.27
2023-04-21T17:37:23.739Z,13.90
2023-04-21T17:39:50.296Z,10.60
2023-04-21T17:42:16.712Z,11.45
2023-04-21T17:44:43.105Z,8.60
2023-04-21T17:47:09.634Z,9.80
2023-04-21T17:49:36.284Z,13.73
2023-04-21T17:52:03.066Z,10.35
2023-04-21T17:54:29.523Z,8.68
2023-04-21T17:56:56.414Z,11.13
2023-04-21T17:59:23.177Z,11.80
2023-04-21T18:01:49.653Z,10.77
2023-04-21T18:04:17.011Z,10.00
2023-04-21T18:06:43.732Z,11.00
2023-04-21T18:09:10.191Z,14.85
2023-04-21T18:11:36.626Z,10.40
2023-04-21T18:14:03.071Z,13.15
2023-04-21T18:16:29.734Z,8.90
2023-04-21T18:18:56.271Z,10.85
2023-04-21T18:21:22.706Z,14.55
2023-04-21T18:23:49.282Z,10.98
2023-04-21T18:26:15.835Z,12.60
2023-04-21T18:28:42.249Z,12.48
2023-04-21T18:31:08.840Z,13.70
2023-04-21T18:33:35.506Z,9.50
2023-04-21T18:36:01.914Z,11.35
2023-04-21T18:38:28.390Z,12.75
2023-04-21T18:40:55.568Z,7.18
2023-04-21T18:43:22.336Z,8.98
2023-04-21T18:45:48.756Z,9.48
2023-04-21T18:48:15.275Z,10.45
2023-04-21T18:50:41.733Z,7.47
2023-04-21T18:53:08.372Z,9.13
2023-04-21T18:55:35.914Z,18.60
2023-04-21T18:58:02.584Z,14.90
2023-04-21T19:00:30.014Z,11.40
2023-04-21T19:02:56.637Z,11.73
2023-04-21T19:05:23.405Z,13.30
2023-04-21T19:07:49.851Z,13.43
2023-04-21T19:10:16.356Z,13.30
2023-04-21T19:12:42.907Z,13.80
2023-04-21T19:15:09.613Z,12.90
2023-04-21T19:17:36.210Z,20.55
2023-04-21T19:20:02.667Z,14.35
2023-04-21T19:22:32.030Z,11.43
2023-04-21T19:24:58.520Z,16.92
2023-04-21T19:27:24.964Z,13.20
2023-04-21T19:29:51.503Z,14.27
2023-04-21T19:32:18.154Z,12.25
2023-04-21T19:47:37.654Z,15.68
2023-04-21T19:50:04.639Z,14.27
2023-04-21T19:52:31.327Z,15.95
2023-04-21T19:54:58.073Z,17.23
2023-04-21T19:57:24.667Z,17.02
2023-04-21T19:59:52.045Z,19.63
2023-04-21T20:02:19.530Z,19.00
2023-04-21T20:04:47.515Z,17.67
2023-04-21T20:07:14.289Z,16.02
2023-04-21T20:09:41.122Z,17.88
2023-04-21T20:12:07.745Z,22.15
2023-04-21T20:14:34.336Z,19.17
2023-04-21T20:17:01.012Z,24.50
2023-04-21T20:19:30.971Z,22.70
2023-04-21T20:21:58.029Z,16.50
2023-04-21T20:24:24.972Z,17.17
2023-04-21T20:26:51.696Z,17.45
2023-04-21T20:29:18.331Z,18.52
2023-04-21T20:31:45.772Z,17.58
2023-04-21T20:34:12.449Z,12.02
2023-04-21T20:36:39.706Z,13.27
2023-04-21T20:39:06.617Z,15.57
2023-04-21T20:41:33.266Z,19.30
2023-04-21T20:44:03.341Z,13.15
2023-04-21T20:46:30.377Z,14.18
2023-04-21T20:48:57.230Z,27.92
2023-04-21T20:51:23.895Z,20.58
2023-04-21T20:53:50.563Z,15.90
2023-04-21T20:56:17.286Z,15.05
2023-04-21T20:58:44.081Z,12.40
2023-04-21T21:01:10.839Z,12.52
2023-04-21T21:03:37.715Z,12.77
2023-04-21T21:06:04.849Z,16.63
2023-04-21T21:08:31.533Z,15.30
2023-04-21T21:10:58.123Z,13.25
2023-04-21T21:13:24.759Z,12.13
2023-04-21T21:15:51.993Z,16.87
2023-04-21T21:18:18.651Z,16.08
2023-04-21T21:20:45.321Z,14.00
2023-04-21T21:23:12.000Z,14.77
2023-04-21T21:25:38.811Z,14.73
2023-04-21T21:28:05.467Z,12.93
2023-04-21T21:30:32.084Z,13.17
2023-04-21T21:32:58.771Z,12.00
2023-04-21T21:35:25.535Z,15.33
2023-04-21T21:37:52.224Z,17.33
2023-04-21T21:40:18.930Z,13.47
2023-04-21T21:42:45.692Z,17.13
2023-04-21T21:45:12.390Z,12.43
2023-04-21T21:47:42.846Z,15.77
2023-04-21T21:50:14.401Z,14.60
2023-04-21T21:52:41.099Z,15.57
2023-04-21T21:55:08.168Z,13.27
2023-04-21T21:57:34.861Z,11.93
2023-04-21T22:00:02.262Z,12.97
2023-04-21T22:02:29.393Z,12.87
2023-04-21T22:04:56.775Z,12.67
2023-04-21T22:07:25.118Z,12.50
2023-04-21T22:09:52.542Z,11.47
2023-04-21T22:12:19.168Z,13.83
2023-04-21T22:14:47.107Z,13.67
2023-04-21T22:17:14.556Z,16.57
2023-04-21T22:19:41.857Z,17.57
2023-04-21T22:22:15.846Z,10.57
2023-04-21T22:24:42.470Z,13.95
2023-04-21T22:27:09.320Z,13.60
2023-04-21T22:29:36.243Z,13.27
2023-04-21T22:32:03.144Z,15.13
2023-04-21T22:34:29.752Z,10.20
2023-04-21T22:36:57.711Z,17.47
2023-04-21T22:39:24.380Z,15.83
2023-04-21T22:41:52.174Z,15.43
2023-04-21T22:44:18.863Z,11.20
2023-04-21T22:46:45.562Z,14.80
2023-04-21T22:49:12.270Z,10.77
2023-04-21T22:51:38.944Z,11.83
2023-04-21T22:54:05.843Z,12.63
2023-04-21T22:56:32.685Z,16.73
2023-04-21T22:58:59.529Z,15.03
2023-04-21T23:01:26.349Z,10.93
2023-04-21T23:03:53.582Z,9.33
2023-04-21T23:06:20.472Z,10.93
2023-04-21T23:08:47.139Z,10.17
2023-04-21T23:11:13.888Z,14.33
2023-04-21T23:13:40.617Z,12.30
2023-04-21T23:16:07.665Z,10.17
2023-04-21T23:18:34.438Z,11.57
2023-04-21T23:21:01.054Z,11.37
2023-04-21T23:23:27.792Z,13.73
2023-04-21T23:25:54.429Z,11.43
2023-04-21T23:28:21.833Z,9.37
2023-04-21T23:30:48.439Z,14.83
2023-04-21T23:33:15.106Z,12.10
2023-04-21T23:35:41.836Z,12.60
2023-04-21T23:38:08.681Z,13.83
2023-04-21T23:40:35.568Z,14.30
2023-04-21T23:43:07.410Z,11.57
2023-04-21T23:45:34.240Z,10.63
2023-04-21T23:48:07.244Z,10.87
2023-04-21T23:50:33.920Z,10.93
2023-04-21T23:53:01.157Z,9.50
2023-04-21T23:55:27.775Z,11.83
2023-04-21T23:57:54.390Z,11.80
